createdAt,value
2019-03-22T00:00:56.581Z,8.26
2019-03-22T00:02:00.290Z,8.23
2019-03-22T00:03:04.029Z,8.07
2019-03-22T00:04:07.666Z,7.94
2019-03-22T00:05:11.304Z,7.92
2019-03-22T00:06:15.048Z,7.98
2019-03-22T00:07:18.686Z,8.07
2019-03-22T00:08:22.352Z,8.14
2019-03-22T00:09:25.943Z,8.13
2019-03-22T00:10:29.578Z,8.08
2019-03-22T00:11:33.236Z,8.12
2019-03-22T00:12:36.802Z,8.13
2019-03-22T00:13:40.434Z,8.18
2019-03-22T00:14:44.057Z,8.08
2019-03-22T00:15:47.699Z,8.08
2019-03-22T00:16:51.366Z,8.07
2019-03-22T00:17:55.001Z,8.02
2019-03-22T00:18:58.635Z,8.00
2019-03-22T00:20:02.735Z,8.02
2019-03-22T00:21:06.366Z,8.00
2019-03-22T00:22:10.400Z,8.05
2019-03-22T00:23:14.035Z,8.09
2019-03-22T00:24:17.677Z,8.14
2019-03-22T00:25:21.384Z,8.16
2019-03-22T00:26:24.953Z,8.11
2019-03-22T00:27:28.667Z,8.10
2019-03-22T00:28:32.378Z,8.09
2019-03-22T00:29:36.008Z,8.08
2019-03-22T00:30:39.639Z,8.08
2019-03-22T00:31:43.275Z,8.05
2019-03-22T00:32:46.952Z,7.90
2019-03-22T00:33:50.578Z,7.88
2019-03-22T00:34:54.607Z,7.93
2019-03-22T00:35:58.245Z,7.85
2019-03-22T00:37:01.891Z,7.89
2019-03-22T00:38:05.561Z,8.00
2019-03-22T00:39:09.327Z,8.01
2019-03-22T00:40:14.684Z,7.99
2019-03-22T00:41:18.315Z,7.85
2019-03-22T00:42:21.948Z,7.76
2019-03-22T00:43:25.539Z,7.72
2019-03-22T00:44:29.162Z,7.67
2019-03-22T00:45:32.867Z,7.63
2019-03-22T00:46:36.506Z,7.57
2019-03-22T00:47:40.208Z,7.49
2019-03-22T00:48:43.875Z,7.47
2019-03-22T00:49:47.519Z,7.58
2019-03-22T00:50:51.158Z,7.62
2019-03-22T00:51:54.792Z,7.57
2019-03-22T00:52:58.501Z,7.56
2019-03-22T00:54:02.181Z,7.48
2019-03-22T00:55:06.316Z,7.41
2019-03-22T00:56:09.955Z,7.34
2019-03-22T00:57:13.591Z,7.28
2019-03-22T00:58:17.227Z,7.18
2019-03-22T00:59:20.893Z,7.27
2019-03-22T01:00:24.532Z,7.40
2019-03-22T01:01:28.169Z,7.42
2019-03-22T01:02:31.825Z,7.46
2019-03-22T01:03:35.457Z,7.52
2019-03-22T01:04:39.124Z,7.53
2019-03-22T01:05:42.768Z,7.59
2019-03-22T01:06:46.404Z,7.47
2019-03-22T01:07:50.309Z,7.24
2019-03-22T01:08:53.879Z,7.05
2019-03-22T01:09:57.553Z,6.96
2019-03-22T01:11:01.189Z,6.93
2019-03-22T01:12:04.834Z,6.95
2019-03-22T01:13:08.464Z,7.06
2019-03-22T01:14:12.120Z,7.12
2019-03-22T01:15:16.300Z,7.18
2019-03-22T01:16:20.034Z,7.24
2019-03-22T01:17:23.744Z,7.23
2019-03-22T01:18:27.384Z,7.24
2019-03-22T01:19:31.466Z,7.22
2019-03-22T01:20:35.101Z,7.06
2019-03-22T01:21:38.777Z,6.87
2019-03-22T01:22:42.411Z,6.79
2019-03-22T01:23:46.044Z,6.79
2019-03-22T01:24:49.750Z,6.83
2019-03-22T01:25:53.395Z,6.80
2019-03-22T01:26:57.065Z,6.86
2019-03-22T01:28:00.694Z,6.96
2019-03-22T01:29:04.323Z,7.03
2019-03-22T01:30:18.539Z,7.11
2019-03-22T01:31:22.179Z,7.10
2019-03-22T01:32:25.852Z,7.00
2019-03-22T01:33:29.855Z,6.90
2019-03-22T01:34:33.482Z,6.89
2019-03-22T01:35:37.111Z,6.91
2019-03-22T01:36:40.747Z,6.96
2019-03-22T01:37:44.730Z,6.98
2019-03-22T01:38:48.358Z,7.04
2019-03-22T01:39:52.002Z,7.07
2019-03-22T01:40:55.630Z,7.11
2019-03-22T01:41:59.267Z,7.10
2019-03-22T01:43:02.936Z,7.04
2019-03-22T01:44:06.569Z,7.00
2019-03-22T01:45:14.608Z,6.93
2019-03-22T01:46:18.678Z,6.80
2019-03-22T01:47:22.310Z,6.65
2019-03-22T01:48:25.983Z,6.53
2019-03-22T01:49:29.609Z,6.60
2019-03-22T01:50:33.650Z,6.70
2019-03-22T01:51:37.294Z,6.80
2019-03-22T01:52:40.926Z,6.89
2019-03-22T01:53:44.593Z,6.94
2019-03-22T01:54:48.236Z,7.00
2019-03-22T01:55:51.800Z,6.93
2019-03-22T01:56:55.433Z,6.82
2019-03-22T01:57:59.071Z,6.69
2019-03-22T01:59:02.729Z,6.59
2019-03-22T02:00:17.906Z,6.59
2019-03-22T02:01:21.541Z,6.58
2019-03-22T02:02:25.179Z,6.54
2019-03-22T02:03:28.815Z,6.61
2019-03-22T02:04:32.789Z,6.66
2019-03-22T02:05:36.501Z,6.73
2019-03-22T02:06:40.141Z,6.77
2019-03-22T02:07:43.768Z,6.81
2019-03-22T02:08:47.399Z,6.66
2019-03-22T02:09:51.062Z,6.59
2019-03-22T02:10:54.782Z,6.53
2019-03-22T02:11:58.414Z,6.48
2019-03-22T02:13:02.057Z,6.51
2019-03-22T02:14:05.688Z,6.57
2019-03-22T02:15:16.300Z,6.69
2019-03-22T02:16:19.970Z,6.73
2019-03-22T02:17:24.004Z,6.81
2019-03-22T02:18:27.642Z,6.82
2019-03-22T02:19:31.281Z,6.77
2019-03-22T02:20:34.866Z,6.63
2019-03-22T02:21:38.502Z,6.54
2019-03-22T02:22:42.141Z,6.44
2019-03-22T02:23:45.704Z,6.32
2019-03-22T02:24:49.335Z,6.27
2019-03-22T02:25:53.005Z,6.34
2019-03-22T02:26:56.645Z,6.43
2019-03-22T02:28:04.471Z,6.50
2019-03-22T02:29:05.643Z,6.56
2019-03-22T02:30:12.151Z,6.54
2019-03-22T02:31:15.843Z,6.53
2019-03-22T02:32:19.466Z,6.39
2019-03-22T02:33:23.112Z,6.35
2019-03-22T02:34:26.757Z,6.24
2019-03-22T02:35:30.387Z,6.16
2019-03-22T02:36:34.045Z,6.15
2019-03-22T02:37:37.678Z,6.28
2019-03-22T02:38:41.305Z,6.34
2019-03-22T02:39:45.517Z,6.35
2019-03-22T02:40:49.121Z,6.34
2019-03-22T02:41:53.117Z,6.42
2019-03-22T02:42:57.254Z,6.36
2019-03-22T02:44:00.888Z,6.23
2019-03-22T02:45:10.204Z,6.18
2019-03-22T02:46:13.817Z,6.10
2019-03-22T02:47:17.425Z,6.05
2019-03-22T02:48:21.058Z,6.10
2019-03-22T02:49:24.690Z,6.15
2019-03-22T02:50:28.329Z,6.18
2019-03-22T02:51:31.877Z,6.22
2019-03-22T02:52:35.546Z,6.24
2019-03-22T02:53:39.191Z,6.29
2019-03-22T02:54:42.824Z,6.25
2019-03-22T02:55:46.479Z,6.20
2019-03-22T02:56:50.185Z,6.13
2019-03-22T02:57:53.878Z,6.02
2019-03-22T02:58:59.378Z,5.95
2019-03-22T03:00:02.971Z,6.00
2019-03-22T03:01:06.670Z,6.06
2019-03-22T03:02:10.390Z,6.11
2019-03-22T03:03:14.049Z,6.16
2019-03-22T03:04:17.676Z,6.19
2019-03-22T03:05:21.312Z,6.13
2019-03-22T03:06:24.952Z,6.12
2019-03-22T03:07:28.588Z,6.06
2019-03-22T03:08:32.259Z,6.00
2019-03-22T03:09:35.895Z,5.89
2019-03-22T03:10:39.542Z,5.79
2019-03-22T03:11:43.175Z,5.88
2019-03-22T03:12:47.017Z,5.95
2019-03-22T03:13:50.616Z,5.98
2019-03-22T03:14:54.254Z,5.99
2019-03-22T03:15:58.276Z,6.05
2019-03-22T03:17:01.897Z,6.02
2019-03-22T03:18:05.525Z,5.93
2019-03-22T03:19:09.174Z,5.90
2019-03-22T03:20:15.200Z,5.90
2019-03-22T03:21:18.827Z,5.86
2019-03-22T03:22:22.471Z,5.91
2019-03-22T03:23:26.382Z,5.96
2019-03-22T03:24:29.973Z,6.03
2019-03-22T03:25:33.610Z,6.02
2019-03-22T03:26:37.236Z,5.89
2019-03-22T03:27:40.885Z,5.77
2019-03-22T03:28:44.514Z,5.78
2019-03-22T03:29:48.181Z,5.69
2019-03-22T03:30:52.112Z,5.69
2019-03-22T03:31:56.190Z,5.74
2019-03-22T03:32:59.864Z,5.81
2019-03-22T03:34:03.897Z,5.92
2019-03-22T03:35:08.185Z,5.96
2019-03-22T03:36:11.839Z,5.96
2019-03-22T03:37:15.481Z,5.98
2019-03-22T03:38:19.500Z,6.04
2019-03-22T03:39:23.140Z,6.00
2019-03-22T03:40:26.842Z,5.87
2019-03-22T03:41:30.510Z,5.78
2019-03-22T03:42:34.151Z,5.73
2019-03-22T03:43:37.792Z,5.66
2019-03-22T03:44:41.424Z,5.62
2019-03-22T03:45:45.064Z,5.64
2019-03-22T03:46:48.729Z,5.70
2019-03-22T03:47:52.368Z,5.68
2019-03-22T03:48:55.995Z,5.63
2019-03-22T03:49:59.636Z,5.66
2019-03-22T03:51:03.270Z,5.73
2019-03-22T03:52:06.942Z,5.70
2019-03-22T03:53:10.574Z,5.69
2019-03-22T03:54:14.220Z,5.59
2019-03-22T03:55:17.836Z,5.47
2019-03-22T03:56:21.471Z,5.57
2019-03-22T03:57:25.139Z,5.67
2019-03-22T03:58:28.782Z,5.75
2019-03-22T03:59:32.419Z,5.77
2019-03-22T04:00:36.042Z,5.83
2019-03-22T04:01:39.688Z,5.89
2019-03-22T04:02:43.371Z,5.76
2019-03-22T04:03:46.993Z,5.67
2019-03-22T04:04:50.627Z,5.70
2019-03-22T04:05:54.283Z,5.72
2019-03-22T04:06:57.930Z,5.59
2019-03-22T04:08:01.656Z,5.52
2019-03-22T04:09:07.124Z,5.61
2019-03-22T04:10:10.763Z,5.61
2019-03-22T04:11:14.407Z,5.55
2019-03-22T04:12:18.041Z,5.63
2019-03-22T04:13:21.646Z,5.75
2019-03-22T04:14:25.287Z,5.73
2019-03-22T04:15:28.905Z,5.56
2019-03-22T04:16:32.606Z,5.45
2019-03-22T04:17:36.240Z,5.38
2019-03-22T04:18:39.906Z,5.43
2019-03-22T04:19:43.477Z,5.55
2019-03-22T04:20:47.115Z,5.59
2019-03-22T04:21:50.765Z,5.61
2019-03-22T04:22:54.724Z,5.70
2019-03-22T04:23:58.406Z,5.76
2019-03-22T04:25:02.124Z,5.55
2019-03-22T04:26:06.101Z,5.38
2019-03-22T04:27:09.735Z,5.19
2019-03-22T04:28:13.369Z,5.00
2019-03-22T04:29:17.021Z,4.91
2019-03-22T04:30:20.652Z,4.99
2019-03-22T04:31:25.141Z,5.12
2019-03-22T04:32:28.712Z,5.21
2019-03-22T04:33:32.342Z,5.29
2019-03-22T04:34:36.401Z,5.38
2019-03-22T04:35:40.040Z,5.34
2019-03-22T04:36:43.680Z,5.30
2019-03-22T04:37:47.315Z,5.27
2019-03-22T04:38:50.942Z,5.18
2019-03-22T04:39:54.611Z,5.09
2019-03-22T04:40:58.249Z,5.13
2019-03-22T04:42:01.880Z,5.25
2019-03-22T04:43:05.513Z,5.34
2019-03-22T04:44:09.081Z,5.44
2019-03-22T04:45:13.095Z,5.41
2019-03-22T04:46:17.420Z,5.36
2019-03-22T04:47:22.057Z,5.39
2019-03-22T04:48:28.346Z,5.44
2019-03-22T04:49:34.516Z,5.51
2019-03-22T04:50:41.152Z,5.51
2019-03-22T04:51:45.683Z,5.55
2019-03-22T04:52:49.936Z,5.58
2019-03-22T04:53:56.564Z,5.56
2019-03-22T04:55:01.895Z,5.58
2019-03-22T04:56:08.488Z,5.63
2019-03-22T04:57:14.027Z,5.62
2019-03-22T04:58:19.454Z,5.66
2019-03-22T04:59:24.177Z,5.54
2019-03-22T05:00:29.256Z,5.49
2019-03-22T05:01:34.233Z,5.36
2019-03-22T05:02:39.360Z,5.37
2019-03-22T05:03:43.783Z,5.37
2019-03-22T05:04:49.820Z,5.39
2019-03-22T05:05:56.237Z,5.43
2019-03-22T05:07:00.595Z,5.41
2019-03-22T05:08:05.335Z,5.34
2019-03-22T05:09:12.020Z,5.25
2019-03-22T05:10:16.734Z,5.19
2019-03-22T05:11:22.138Z,5.14
2019-03-22T05:12:26.706Z,5.15
2019-03-22T05:13:32.147Z,5.09
2019-03-22T05:14:37.985Z,5.07
2019-03-22T05:15:43.117Z,5.16
2019-03-22T05:16:49.099Z,5.16
2019-03-22T05:17:53.405Z,5.10
2019-03-22T05:18:59.858Z,5.07
2019-03-22T05:20:04.486Z,5.17
2019-03-22T05:21:09.939Z,5.23
2019-03-22T05:22:15.473Z,5.27
2019-03-22T05:23:22.561Z,5.29
2019-03-22T05:24:28.205Z,5.26
2019-03-22T05:25:32.831Z,5.19
2019-03-22T05:26:39.174Z,5.13
2019-03-22T05:27:45.004Z,5.23
2019-03-22T05:28:49.078Z,5.23
2019-03-22T05:29:55.114Z,5.29
2019-03-22T05:31:10.681Z,5.30
2019-03-22T05:32:15.518Z,5.30
2019-03-22T05:33:19.151Z,5.28
2019-03-22T05:34:22.811Z,5.29
2019-03-22T05:35:26.451Z,5.25
2019-03-22T05:36:30.090Z,5.31
2019-03-22T05:37:33.797Z,5.35
2019-03-22T05:38:37.436Z,5.32
2019-03-22T05:39:41.102Z,5.18
2019-03-22T05:40:44.751Z,5.25
2019-03-22T05:41:48.381Z,5.21
2019-03-22T05:42:52.015Z,5.17
2019-03-22T05:43:55.646Z,5.23
2019-03-22T05:44:59.387Z,5.38
2019-03-22T05:46:03.370Z,5.46
2019-03-22T05:47:09.734Z,5.48
2019-03-22T05:48:13.371Z,5.50
2019-03-22T05:49:17.006Z,5.41
2019-03-22T05:50:22.945Z,5.28
2019-03-22T05:51:26.577Z,5.27
2019-03-22T05:52:30.211Z,5.32
2019-03-22T05:53:33.923Z,5.36
2019-03-22T05:54:37.559Z,5.47
2019-03-22T05:55:41.240Z,5.46
2019-03-22T05:56:44.883Z,5.43
2019-03-22T05:57:48.529Z,5.54
2019-03-22T05:58:52.161Z,5.56
2019-03-22T05:59:55.794Z,5.58
2019-03-22T06:00:59.458Z,5.43
2019-03-22T06:02:03.115Z,5.21
2019-03-22T06:03:07.812Z,5.09
2019-03-22T06:04:12.918Z,5.07
2019-03-22T06:05:16.486Z,5.01
2019-03-22T06:06:21.794Z,4.98
2019-03-22T06:07:25.433Z,4.99
2019-03-22T06:08:29.066Z,4.95
2019-03-22T06:09:32.693Z,4.91
2019-03-22T06:10:36.327Z,4.88
2019-03-22T06:11:39.993Z,5.00
2019-03-22T06:12:43.931Z,5.06
2019-03-22T06:13:47.569Z,5.07
2019-03-22T06:14:51.208Z,5.05
2019-03-22T06:15:54.840Z,5.06
2019-03-22T06:16:58.630Z,5.06
2019-03-22T06:18:02.191Z,5.20
2019-03-22T06:19:06.153Z,5.27
2019-03-22T06:20:10.767Z,5.25
2019-03-22T06:21:15.735Z,5.37
2019-03-22T06:22:19.364Z,5.45
2019-03-22T06:23:22.993Z,5.52
2019-03-22T06:24:26.637Z,5.63
2019-03-22T06:25:30.302Z,5.81
2019-03-22T06:26:33.932Z,5.90
2019-03-22T06:27:37.564Z,5.91
2019-03-22T06:28:41.222Z,5.89
2019-03-22T06:29:54.192Z,5.86
2019-03-22T06:30:50.961Z,5.83
2019-03-22T06:31:54.757Z,5.88
2019-03-22T06:32:58.421Z,5.98
2019-03-22T06:34:02.132Z,6.06
2019-03-22T06:35:08.700Z,6.17
2019-03-22T06:36:12.390Z,6.32
2019-03-22T06:37:16.030Z,6.40
2019-03-22T06:38:19.653Z,6.47
2019-03-22T06:39:23.293Z,6.59
2019-03-22T06:40:26.931Z,6.69
2019-03-22T06:41:30.600Z,6.85
2019-03-22T06:42:34.234Z,7.08
2019-03-22T06:43:37.881Z,7.35
2019-03-22T06:44:41.585Z,7.46
2019-03-22T06:45:45.225Z,7.43
2019-03-22T06:46:49.097Z,7.43
2019-03-22T06:47:55.371Z,7.51
2019-03-22T06:49:01.266Z,7.59
2019-03-22T06:50:06.904Z,7.73
2019-03-22T06:51:10.548Z,7.85
2019-03-22T06:52:14.187Z,7.83
2019-03-22T06:53:17.820Z,7.87
2019-03-22T06:54:31.066Z,8.01
2019-03-22T06:55:27.814Z,8.04
2019-03-22T06:56:31.454Z,8.04
2019-03-22T06:57:35.187Z,8.09
2019-03-22T06:58:38.882Z,8.18
2019-03-22T06:59:42.600Z,8.17
2019-03-22T07:00:46.160Z,8.19
2019-03-22T07:01:49.806Z,8.33
2019-03-22T07:02:53.470Z,8.48
2019-03-22T07:03:57.134Z,8.59
2019-03-22T07:05:00.699Z,8.63
2019-03-22T07:06:04.275Z,8.74
2019-03-22T07:07:07.899Z,8.74
2019-03-22T07:08:11.575Z,8.78
2019-03-22T07:09:15.212Z,8.85
2019-03-22T07:10:18.842Z,8.96
2019-03-22T07:11:22.482Z,8.98
2019-03-22T07:12:26.188Z,9.10
2019-03-22T07:13:29.847Z,9.33
2019-03-22T07:14:33.489Z,9.45
2019-03-22T07:15:38.929Z,9.47
2019-03-22T07:16:42.535Z,9.58
2019-03-22T07:17:46.176Z,9.81
2019-03-22T07:18:49.838Z,9.98
2019-03-22T07:19:53.504Z,10.09
2019-03-22T07:20:57.212Z,10.53
2019-03-22T07:22:00.850Z,10.59
2019-03-22T07:23:04.561Z,10.59
2019-03-22T07:24:09.187Z,10.64
2019-03-22T07:25:17.687Z,10.79
2019-03-22T07:26:21.693Z,10.79
2019-03-22T07:27:25.310Z,11.24
2019-03-22T07:28:28.936Z,11.24
2019-03-22T07:29:32.587Z,11.27
2019-03-22T07:30:36.243Z,11.30
2019-03-22T07:31:39.886Z,11.30
2019-03-22T07:32:43.527Z,11.31
2019-03-22T07:33:47.180Z,11.40
2019-03-22T07:34:50.865Z,11.64
2019-03-22T07:35:54.494Z,11.65
2019-03-22T07:36:58.135Z,12.04
2019-03-22T07:38:01.862Z,12.38
2019-03-22T07:39:07.947Z,12.67
2019-03-22T07:40:12.599Z,12.89
2019-03-22T07:41:16.236Z,13.03
2019-03-22T07:42:19.899Z,13.06
2019-03-22T07:43:23.550Z,13.26
2019-03-22T07:44:27.185Z,13.58
2019-03-22T07:45:30.859Z,13.83
2019-03-22T07:46:34.536Z,13.84
2019-03-22T07:47:38.591Z,13.85
2019-03-22T07:48:42.298Z,14.05
2019-03-22T07:49:45.939Z,14.02
2019-03-22T07:50:49.606Z,14.36
2019-03-22T07:51:53.319Z,14.36
2019-03-22T07:52:57.039Z,14.59
2019-03-22T07:54:03.497Z,14.54
2019-03-22T07:55:06.812Z,14.74
2019-03-22T07:56:10.487Z,14.74
2019-03-22T07:57:14.120Z,14.75
2019-03-22T07:58:17.821Z,14.98
2019-03-22T07:59:21.468Z,14.98
2019-03-22T08:00:30.646Z,14.88
2019-03-22T08:01:37.712Z,15.27
2019-03-22T08:02:41.361Z,15.27
2019-03-22T08:03:46.385Z,15.52
2019-03-22T08:04:50.025Z,15.64
2019-03-22T08:05:53.673Z,15.94
2019-03-22T08:06:57.441Z,16.13
2019-03-22T08:08:02.309Z,16.26
2019-03-22T08:09:09.197Z,16.35
2019-03-22T08:10:12.945Z,16.62
2019-03-22T08:11:19.023Z,16.80
2019-03-22T08:12:22.699Z,16.84
2019-03-22T08:13:26.406Z,16.70
2019-03-22T08:14:30.077Z,16.68
2019-03-22T08:15:34.082Z,16.73
2019-03-22T08:16:37.720Z,16.62
2019-03-22T08:17:41.406Z,16.71
2019-03-22T08:18:45.036Z,16.80
2019-03-22T08:19:49.089Z,16.94
2019-03-22T08:20:52.922Z,17.16
2019-03-22T08:21:56.560Z,17.30
2019-03-22T08:23:00.683Z,17.30
2019-03-22T08:24:04.349Z,17.25
2019-03-22T08:25:08.079Z,17.21
2019-03-22T08:26:11.716Z,17.25
2019-03-22T08:27:15.352Z,17.55
2019-03-22T08:28:19.095Z,17.76
2019-03-22T08:29:22.750Z,17.89
2019-03-22T08:30:26.476Z,18.03
2019-03-22T08:31:30.128Z,17.99
2019-03-22T08:32:33.707Z,18.07
2019-03-22T08:33:37.382Z,18.22
2019-03-22T08:34:41.024Z,18.39
2019-03-22T08:35:44.662Z,18.62
2019-03-22T08:36:48.306Z,18.80
2019-03-22T08:37:53.015Z,18.63
2019-03-22T08:38:56.908Z,18.43
2019-03-22T08:40:00.696Z,18.35
2019-03-22T08:41:04.421Z,18.73
2019-03-22T08:42:08.063Z,18.96
2019-03-22T08:43:11.714Z,19.25
2019-03-22T08:44:15.381Z,19.53
2019-03-22T08:45:19.055Z,19.71
2019-03-22T08:46:22.598Z,19.96
2019-03-22T08:47:33.979Z,20.38
2019-03-22T08:48:31.612Z,20.72
2019-03-22T08:49:35.516Z,21.12
2019-03-22T08:50:39.304Z,21.16
2019-03-22T08:51:43.347Z,21.17
2019-03-22T08:52:47.054Z,21.45
2019-03-22T08:53:55.619Z,21.63
2019-03-22T08:54:56.099Z,21.81
2019-03-22T08:55:59.716Z,21.95
2019-03-22T08:57:03.363Z,22.16
2019-03-22T08:58:07.035Z,22.28
2019-03-22T08:59:13.378Z,22.57
2019-03-22T09:00:16.932Z,22.42
2019-03-22T09:01:20.639Z,22.27
2019-03-22T09:02:24.280Z,22.58
2019-03-22T09:03:27.921Z,22.66
2019-03-22T09:04:31.574Z,22.98
2019-03-22T09:05:35.247Z,23.02
2019-03-22T09:06:38.914Z,23.20
2019-03-22T09:07:42.523Z,23.45
2019-03-22T09:08:47.868Z,23.85
2019-03-22T09:09:51.691Z,23.87
2019-03-22T09:10:55.392Z,24.11
2019-03-22T09:11:59.004Z,24.20
2019-03-22T09:13:02.697Z,24.40
2019-03-22T09:14:06.354Z,24.55
2019-03-22T09:15:11.514Z,24.84
2019-03-22T09:16:15.201Z,24.89
2019-03-22T09:17:18.845Z,25.03
2019-03-22T09:18:22.877Z,25.48
2019-03-22T09:19:26.498Z,25.67
2019-03-22T09:20:30.159Z,26.11
2019-03-22T09:21:33.820Z,26.47
2019-03-22T09:22:37.483Z,26.51
2019-03-22T09:23:41.265Z,26.18
2019-03-22T09:24:44.861Z,26.08
2019-03-22T09:25:48.467Z,26.33
2019-03-22T09:26:52.259Z,26.88
2019-03-22T09:27:55.879Z,27.17
2019-03-22T09:28:59.508Z,27.18
2019-03-22T09:30:03.143Z,26.91
2019-03-22T09:31:10.769Z,26.69
2019-03-22T09:32:15.031Z,26.47
2019-03-22T09:33:18.658Z,26.76
2019-03-22T09:34:33.094Z,26.85
2019-03-22T09:35:27.675Z,26.83
2019-03-22T09:36:31.255Z,27.24
2019-03-22T09:37:34.881Z,27.58
2019-03-22T09:38:38.593Z,27.26
2019-03-22T09:39:42.242Z,27.47
2019-03-22T09:40:45.880Z,27.60
2019-03-22T09:41:49.521Z,27.65
2019-03-22T09:42:53.301Z,27.58
2019-03-22T09:43:57.203Z,27.93
2019-03-22T09:45:00.869Z,28.24
2019-03-22T09:46:04.468Z,28.22
2019-03-22T09:47:08.481Z,28.63
2019-03-22T09:48:12.265Z,28.00
2019-03-22T09:49:16.016Z,28.42
2019-03-22T09:50:20.126Z,28.89
2019-03-22T09:51:23.749Z,29.31
2019-03-22T09:52:27.463Z,29.68
2019-03-22T09:53:31.474Z,30.07
2019-03-22T09:54:35.102Z,29.99
2019-03-22T09:55:38.756Z,29.85
2019-03-22T09:56:47.324Z,29.99
2019-03-22T09:57:49.424Z,30.29
2019-03-22T09:58:53.360Z,30.01
2019-03-22T09:59:56.949Z,29.91
2019-03-22T10:01:00.653Z,29.76
2019-03-22T10:02:04.295Z,29.54
2019-03-22T10:03:08.016Z,29.82
2019-03-22T10:04:11.768Z,29.95
2019-03-22T10:05:15.412Z,30.00
2019-03-22T10:06:19.401Z,30.03
2019-03-22T10:07:22.997Z,30.08
2019-03-22T10:08:26.646Z,30.42
2019-03-22T10:09:30.311Z,30.52
2019-03-22T10:10:34.039Z,30.51
2019-03-22T10:11:37.611Z,30.28
2019-03-22T10:12:41.241Z,30.07
2019-03-22T10:13:48.129Z,30.12
2019-03-22T10:14:50.561Z,30.12
2019-03-22T10:15:54.163Z,29.61
2019-03-22T10:16:58.148Z,29.21
2019-03-22T10:18:02.212Z,29.00
2019-03-22T10:19:05.867Z,28.58
2019-03-22T10:20:09.730Z,28.18
2019-03-22T10:21:22.208Z,28.10
2019-03-22T10:22:18.830Z,28.17
2019-03-22T10:23:22.633Z,28.34
2019-03-22T10:24:26.468Z,28.38
2019-03-22T10:25:30.199Z,28.19
2019-03-22T10:26:33.912Z,27.99
2019-03-22T10:27:37.631Z,28.19
2019-03-22T10:28:41.330Z,27.90
2019-03-22T10:29:44.970Z,27.95
2019-03-22T10:30:48.671Z,27.75
2019-03-22T10:31:52.377Z,27.52
2019-03-22T10:32:55.990Z,27.30
2019-03-22T10:33:59.685Z,27.45
2019-03-22T10:35:03.590Z,27.75
2019-03-22T10:36:07.473Z,27.90
2019-03-22T10:37:11.184Z,27.84
2019-03-22T10:38:16.532Z,28.20
2019-03-22T10:39:20.206Z,28.23
2019-03-22T10:40:24.203Z,28.34
2019-03-22T10:41:27.916Z,28.57
2019-03-22T10:42:31.633Z,28.22
2019-03-22T10:43:35.306Z,28.21
2019-03-22T10:44:39.549Z,28.23
2019-03-22T10:45:43.260Z,28.53
2019-03-22T10:46:46.970Z,28.91
2019-03-22T10:47:50.623Z,29.12
2019-03-22T10:48:54.264Z,29.34
2019-03-22T10:49:57.922Z,29.10
2019-03-22T10:51:01.583Z,29.27
2019-03-22T10:52:05.218Z,29.48
2019-03-22T10:53:09.163Z,29.27
2019-03-22T10:54:12.992Z,29.47
2019-03-22T10:55:29.200Z,29.75
2019-03-22T10:56:24.814Z,30.19
2019-03-22T10:57:27.380Z,30.36
2019-03-22T10:58:31.027Z,30.60
2019-03-22T10:59:34.766Z,30.92
2019-03-22T11:00:38.585Z,31.14
2019-03-22T11:01:52.390Z,31.14
2019-03-22T11:02:47.601Z,31.43
2019-03-22T11:03:51.308Z,31.93
2019-03-22T11:04:55.073Z,32.16
2019-03-22T11:05:58.750Z,32.62
2019-03-22T11:07:02.389Z,32.80
2019-03-22T11:08:06.018Z,32.36
2019-03-22T11:09:09.756Z,31.82
2019-03-22T11:10:14.223Z,31.40
2019-03-22T11:11:17.876Z,31.45
2019-03-22T11:12:21.504Z,31.76
2019-03-22T11:13:25.159Z,31.66
2019-03-22T11:14:28.805Z,31.77
2019-03-22T11:15:32.441Z,32.04
2019-03-22T11:16:36.201Z,32.08
2019-03-22T11:17:39.904Z,32.00
2019-03-22T11:18:43.538Z,32.52
2019-03-22T11:19:47.182Z,33.13
2019-03-22T11:20:52.374Z,33.41
2019-03-22T11:21:56.012Z,33.29
2019-03-22T11:22:59.662Z,33.06
2019-03-22T11:24:03.299Z,33.52
2019-03-22T11:25:08.037Z,34.30
2019-03-22T11:26:11.611Z,34.67
2019-03-22T11:27:15.289Z,35.03
2019-03-22T11:28:18.925Z,34.77
2019-03-22T11:29:22.558Z,34.05
2019-03-22T11:30:26.193Z,34.02
2019-03-22T11:31:39.205Z,33.33
2019-03-22T11:32:35.323Z,33.55
2019-03-22T11:33:38.960Z,34.01
2019-03-22T11:34:42.893Z,34.10
2019-03-22T11:35:46.543Z,34.01
2019-03-22T11:36:50.189Z,34.42
2019-03-22T11:37:53.871Z,34.63
2019-03-22T11:38:57.607Z,34.47
2019-03-22T11:40:01.563Z,33.38
2019-03-22T11:41:05.202Z,33.32
2019-03-22T11:42:08.838Z,33.48
2019-03-22T11:43:12.509Z,34.08
2019-03-22T11:44:16.155Z,34.46
2019-03-22T11:45:24.627Z,34.55
2019-03-22T11:46:28.442Z,35.13
2019-03-22T11:47:32.084Z,35.60
2019-03-22T11:48:35.799Z,35.74
2019-03-22T11:49:39.448Z,35.52
2019-03-22T11:50:43.292Z,35.45
2019-03-22T11:51:47.007Z,35.80
2019-03-22T11:52:50.647Z,35.37
2019-03-22T11:53:54.293Z,35.15
2019-03-22T11:54:57.951Z,35.53
2019-03-22T11:56:01.581Z,35.63
2019-03-22T11:57:05.314Z,35.33
2019-03-22T11:58:09.295Z,35.32
2019-03-22T11:59:12.966Z,35.26
2019-03-22T12:00:24.473Z,35.37
2019-03-22T12:01:28.115Z,35.44
2019-03-22T12:02:31.753Z,35.79
2019-03-22T12:03:35.385Z,36.31
2019-03-22T12:04:39.066Z,36.26
2019-03-22T12:05:42.768Z,36.19
2019-03-22T12:06:46.403Z,36.17
2019-03-22T12:07:50.035Z,35.99
2019-03-22T12:08:54.010Z,35.42
2019-03-22T12:09:57.688Z,34.41
2019-03-22T12:11:01.324Z,34.23
2019-03-22T12:12:04.964Z,34.41
2019-03-22T12:13:08.754Z,34.57
2019-03-22T12:14:12.749Z,34.57
2019-03-22T12:15:23.395Z,34.17
2019-03-22T12:16:27.038Z,34.62
2019-03-22T12:17:30.682Z,34.49
2019-03-22T12:18:34.317Z,34.73
2019-03-22T12:19:37.964Z,35.05
2019-03-22T12:20:41.636Z,35.09
2019-03-22T12:21:45.290Z,35.16
2019-03-22T12:22:48.919Z,35.48
2019-03-22T12:23:52.559Z,35.52
2019-03-22T12:24:56.193Z,35.17
2019-03-22T12:25:59.932Z,35.24
2019-03-22T12:27:03.631Z,34.77
2019-03-22T12:28:07.379Z,34.52
2019-03-22T12:29:11.003Z,34.34
2019-03-22T12:30:16.885Z,33.90
2019-03-22T12:31:20.546Z,32.83
2019-03-22T12:32:31.953Z,32.67
2019-03-22T12:33:29.620Z,32.35
2019-03-22T12:34:33.257Z,32.18
2019-03-22T12:35:36.933Z,32.22
2019-03-22T12:36:40.570Z,32.27
2019-03-22T12:37:44.606Z,31.91
2019-03-22T12:38:48.262Z,31.83
2019-03-22T12:39:51.972Z,31.39
2019-03-22T12:40:55.609Z,31.26
2019-03-22T12:41:59.408Z,31.14
2019-03-22T12:43:03.169Z,30.78
2019-03-22T12:44:07.218Z,30.62
2019-03-22T12:45:13.773Z,30.32
2019-03-22T12:46:17.414Z,30.40
2019-03-22T12:47:21.126Z,30.13
2019-03-22T12:48:26.967Z,30.17
2019-03-22T12:49:31.950Z,29.96
2019-03-22T12:50:35.707Z,29.87
2019-03-22T12:51:39.351Z,29.79
2019-03-22T12:52:43.028Z,30.35
2019-03-22T12:53:46.661Z,30.76
2019-03-22T12:54:50.344Z,30.92
2019-03-22T12:55:53.969Z,30.86
2019-03-22T12:56:57.678Z,30.68
2019-03-22T12:58:01.399Z,31.04
2019-03-22T12:59:05.037Z,31.38
2019-03-22T13:00:11.585Z,31.40
2019-03-22T13:01:15.227Z,31.77
2019-03-22T13:02:18.965Z,31.71
2019-03-22T13:03:24.314Z,31.90
2019-03-22T13:04:28.209Z,32.06
2019-03-22T13:05:31.925Z,32.41
2019-03-22T13:06:35.597Z,32.26
2019-03-22T13:07:39.434Z,32.64
2019-03-22T13:08:43.091Z,32.82
2019-03-22T13:09:46.733Z,32.89
2019-03-22T13:10:50.408Z,32.76
2019-03-22T13:11:54.046Z,32.74
2019-03-22T13:12:57.737Z,31.78
2019-03-22T13:14:01.362Z,31.18
2019-03-22T13:15:06.002Z,31.29
2019-03-22T13:16:09.746Z,30.93
2019-03-22T13:17:13.567Z,30.99
2019-03-22T13:18:17.252Z,31.28
2019-03-22T13:19:20.923Z,31.50
2019-03-22T13:20:24.630Z,31.66
2019-03-22T13:21:28.340Z,31.97
2019-03-22T13:22:32.401Z,32.03
2019-03-22T13:23:36.039Z,32.04
2019-03-22T13:24:40.058Z,32.22
2019-03-22T13:25:43.615Z,32.20
2019-03-22T13:26:47.247Z,32.05
2019-03-22T13:27:51.434Z,32.02
2019-03-22T13:28:55.178Z,32.13
2019-03-22T13:29:58.849Z,32.08
2019-03-22T13:31:02.490Z,32.34
2019-03-22T13:32:06.121Z,32.59
2019-03-22T13:33:09.772Z,32.20
2019-03-22T13:34:13.442Z,32.34
2019-03-22T13:35:17.132Z,32.26
2019-03-22T13:36:20.767Z,32.16
2019-03-22T13:37:24.393Z,32.42
2019-03-22T13:38:28.039Z,32.58
2019-03-22T13:39:31.680Z,32.54
2019-03-22T13:40:35.365Z,32.67
2019-03-22T13:41:39.001Z,32.80
2019-03-22T13:42:42.650Z,32.39
2019-03-22T13:43:46.281Z,32.11
2019-03-22T13:44:49.997Z,32.07
2019-03-22T13:45:53.633Z,31.37
2019-03-22T13:46:57.181Z,31.20
2019-03-22T13:48:00.818Z,31.30
2019-03-22T13:49:04.459Z,31.42
2019-03-22T13:50:09.804Z,31.34
2019-03-22T13:51:13.455Z,31.26
2019-03-22T13:52:17.175Z,31.51
2019-03-22T13:53:20.948Z,31.52
2019-03-22T13:54:24.577Z,31.43
2019-03-22T13:55:28.219Z,31.45
2019-03-22T13:56:31.953Z,31.59
2019-03-22T13:57:36.718Z,31.73
2019-03-22T13:58:40.349Z,31.83